Weather reports worldwide

Advertisment
Oberstdorf, Germany (10948): temperature & dewpoint: 29.05.2020 18:00:00 - 04.06.2020 18:00:00 (CEST)Oberstdorf, Germany (10948): temperature 5cm & temperature -5cm: 29.05.2020 18:00:00 - 04.06.2020 18:00:00 (CEST)Oberstdorf, Germany (10948): temperature -20cm & temperature -100cm: 29.05.2020 18:00:00 - 04.06.2020 18:00:00 (CEST)Oberstdorf, Germany (10948): wind speed & gusts: 29.05.2020 18:00:00 - 04.06.2020 18:00:00 (CEST)Oberstdorf, Germany (10948): wind direction: 29.05.2020 18:00:00 - 04.06.2020 18:00:00 (CEST)Oberstdorf, Germany (10948): visibility: 29.05.2020 18:00:00 - 04.06.2020 18:00:00 (CEST)Oberstdorf, Germany (10948): sunshine duration: 29.05.2020 18:00:00 - 04.06.2020 18:00:00 (CEST)Oberstdorf, Germany (10948): precipitation: 29.05.2020 18:00:00 - 04.06.2020 18:00:00 (CEST)
Date & Time tt [°C] td [°C] tt 5cm [°C] tt -5cm [°C] tt -20cm [°C] tt -100cm [°C] ff [km/h] ff [kn] fx [km/h] fx [kn] dd vv [km] sd [min] rr [mm]
04.06.2020 18:00:00 12,0 10,4 12,1 16,2 15,8 13,2 5 3 21 11 SE 24 0 2,2
04.06.2020 17:00:00 12,4 9,5 11,3 16,2 15,8 13,2 10 5 16 9 W 5 0 0,8
04.06.2020 16:00:00 13,4 11,3 13,7 16,3 15,8 13,2 7 4 10 5 SSE 11 0 0,6
04.06.2020 15:00:00 13,4 11,4 13,3 16,3 15,8 13,2 6 4 14 7 SE 33 0 1,3
04.06.2020 14:00:00 13,3 10,9 13,3 16,2 15,8 13,2 11 6 22 12 E 12 0 3,5
04.06.2020 13:00:00 15,0 10,9 13,3 16,0 15,8 13,2 9 5 18 10 N 21 5 0,4
04.06.2020 12:00:00 15,4 10,8 16,7 15,8 15,9 13,1 10 6 17 9 N 32 0 -
04.06.2020 11:00:00 15,4 10,9 17,3 15,6 16,0 13,1 8 4 12 6 NNE 62 0 0,0
04.06.2020 10:00:00 14,4 10,4 15,2 15,6 16,1 13,1 3 1 6 4 S 60 0 0,0
04.06.2020 09:00:00 13,1 10,4 13,5 15,7 16,3 13,1 2 1 6 3 N 72 0 0,0
04.06.2020 08:00:00 11,9 10,3 12,2 15,9 16,4 13,1 2 1 10 5 S 60 0 0,0
04.06.2020 07:00:00 11,2 10,0 11,0 16,2 16,5 13,1 8 4 18 10 S 74 0 0,0
04.06.2020 06:00:00 11,4 9,3 10,9 16,5 16,7 13,1 16 9 23 12 SSE 66 0 0,0
04.06.2020 05:00:00 10,6 9,5 9,5 16,8 16,8 13,0 6 3 16 8 S 62 0 0,0
04.06.2020 04:00:00 10,0 9,6 9,6 17,1 16,9 13,0 8 5 14 8 ESE 45 0 0,0
04.06.2020 03:00:00 10,6 9,9 9,2 17,5 17,0 13,0 5 3 9 5 ESE 61 0 0,0
04.06.2020 02:00:00 10,9 10,3 10,5 17,9 17,1 13,0 4 2 9 5 SSW 60 0 0,0
04.06.2020 01:00:00 11,3 10,5 11,1 18,3 17,1 13,0 5 3 12 7 S 64 0 0,0
04.06.2020 00:00:00 11,4 10,5 11,1 18,7 17,1 13,0 5 3 22 12 S 67 0 0,0
03.06.2020 23:00:00 13,1 9,5 12,2 19,2 17,1 13,0 17 9 33 18 SSE 75 0 0,1
03.06.2020 22:00:00 12,2 10,2 11,5 19,6 17,0 13,0 18 10 32 18 S 27 0 1,2
03.06.2020 21:00:00 13,3 9,2 11,7 19,9 16,8 12,9 29 15 52 28 S 18 0 1,8
03.06.2020 20:00:00 19,0 9,2 18,4 19,9 16,6 12,9 10 5 25 14 NW 60 22 0,0
03.06.2020 19:00:00 21,6 7,5 22,5 19,8 16,4 12,9 18 10 28 15 N 64 59 0,0
03.06.2020 18:00:00 22,1 7,4 22,9 19,7 16,2 12,9 17 9 26 14 N 58 46 0,0
03.06.2020 17:00:00 21,5 9,4 22,8 19,4 16,0 12,9 13 7 26 14 N 40 30 0,2
03.06.2020 16:00:00 22,3 6,9 25,5 18,8 15,8 12,9 12 7 23 12 NNW 49 30 0,0
03.06.2020 15:00:00 23,2 7,3 27,8 18,2 15,6 12,9 13 7 22 12 N 62 51 0,0
03.06.2020 14:00:00 22,8 6,7 27,3 17,6 15,5 12,8 3 2 20 11 NE 64 15 0,0
03.06.2020 13:00:00 22,0 5,7 24,6 16,8 15,4 12,8 16 9 26 14 NNW 58 37 0,0
03.06.2020 12:00:00 22,6 4,7 29,0 15,9 15,5 12,8 5 3 16 9 NNE 63 54 0,0
03.06.2020 11:00:00 21,9 6,1 27,5 15,3 15,6 12,8 10 5 18 10 NE 44 60 0,0
03.06.2020 10:00:00 20,9 8,3 23,7 15,0 15,7 12,8 3 1 6 3 SE 17 60 0,0
03.06.2020 09:00:00 17,0 8,6 18,3 15,0 15,9 12,8 2 1 6 3 ESE 18 60 0,0
03.06.2020 08:00:00 12,2 8,2 13,2 15,3 16,0 12,7 0 0 7 4 N 54 60 0,0
03.06.2020 07:00:00 7,0 6,1 6,7 15,7 16,2 12,7 3 2 7 4 SW 46 0 0,0
03.06.2020 06:00:00 5,9 5,3 3,9 16,1 16,4 12,7 4 2 6 3 SSE 50 0 0,0
03.06.2020 05:00:00 5,7 5,1 3,7 16,5 16,5 12,7 4 2 8 4 SSE 56 0 0,0
03.06.2020 04:00:00 6,0 4,9 3,4 17,0 16,6 12,7 4 2 7 4 S 56 0 0,0
03.06.2020 03:00:00 6,5 5,1 3,8 17,5 16,7 12,7 3 2 9 5 S 52 0 0,0
03.06.2020 02:00:00 7,1 5,5 5,1 18,0 16,7 12,7 6 3 8 4 S 63 0 0,0
03.06.2020 01:00:00 9,2 6,8 6,5 18,5 16,7 12,6 5 3 11 6 SE 63 0 0,0
03.06.2020 00:00:00 11,6 7,2 9,5 19,0 16,7 12,6 9 5 13 7 S 64 0 0,0
02.06.2020 23:00:00 11,2 7,0 9,3 19,5 16,6 12,6 10 6 14 8 S 65 0 0,0
02.06.2020 22:00:00 12,8 7,6 11,3 19,8 16,4 12,6 10 5 14 7 SSE 69 0 0,0
02.06.2020 21:00:00 16,8 6,9 15,4 20,0 16,2 12,6 8 4 25 13 NNW 54 30 0,0
02.06.2020 20:00:00 20,4 6,9 20,3 20,1 16,0 12,6 16 9 31 17 NNW 66 60 0,0
02.06.2020 19:00:00 21,6 6,5 22,5 19,9 15,7 12,6 21 11 29 16 NNW 57 60 0,0
02.06.2020 18:00:00 22,4 6,4 24,3 19,5 15,4 12,6 22 12 32 17 NNW 55 60 0,0
02.06.2020 17:00:00 22,7 5,9 25,2 19,0 15,1 12,6 19 10 30 16 N 69 60 0,0
02.06.2020 16:00:00 22,6 5,5 24,9 18,3 14,9 12,6 20 11 32 18 N 61 60 0,0
02.06.2020 15:00:00 22,7 6,7 25,7 17,4 14,7 12,5 19 10 32 17 NNW 63 60 0,0
02.06.2020 14:00:00 22,1 6,0 26,4 16,6 14,5 12,5 17 9 31 17 N 53 60 0,0
02.06.2020 13:00:00 21,1 5,8 26,9 15,7 14,5 12,5 16 8 24 13 N 49 60 0,0
02.06.2020 12:00:00 20,7 6,5 26,0 14,9 14,5 12,5 14 8 25 14 NNW 54 60 0,0
02.06.2020 11:00:00 18,8 8,4 23,5 14,3 14,6 12,5 8 4 18 10 ENE 42 60 0,0
02.06.2020 10:00:00 17,0 8,6 21,2 14,0 14,7 12,5 7 4 14 8 NNE 63 60 0,0
02.06.2020 09:00:00 15,5 8,5 17,7 14,0 14,9 12,5 2 1 5 3 SSW 54 60 0,0
02.06.2020 08:00:00 11,2 7,7 12,9 14,2 15,0 12,5 3 2 4 2 SE 70 60 0,0
02.06.2020 07:00:00 5,4 5,3 4,8 14,6 15,2 12,5 3 2 9 5 SE 30 0 0,0
02.06.2020 06:00:00 5,4 5,4 3,0 15,0 15,3 12,4 6 3 9 5 S 38 0 0,0
02.06.2020 05:00:00 5,1 4,5 3,2 15,4 15,4 12,4 5 3 10 5 S 48 0 0,0
02.06.2020 04:00:00 4,6 4,3 2,7 15,9 15,5 12,4 5 3 10 5 SSE 13 0 0,0
02.06.2020 03:00:00 6,7 6,1 3,4 16,4 15,6 12,4 5 3 8 5 S 58 0 0,0
02.06.2020 02:00:00 7,7 6,7 4,6 16,8 15,6 12,4 4 2 8 4 SE 62 0 0,0
02.06.2020 01:00:00 8,2 6,3 5,7 17,3 15,6 12,4 6 3 11 6 S 57 0 0,0
02.06.2020 00:00:00 8,3 5,9 6,4 17,8 15,6 12,4 4 2 13 7 S 58 0 0,0
01.06.2020 23:00:00 10,4 7,4 7,9 18,2 15,4 12,4 9 5 14 8 S 74 0 0,0
01.06.2020 22:00:00 13,1 8,3 11,0 18,5 15,3 12,4 5 3 13 7 SW 75 0 0,0
01.06.2020 21:00:00 14,2 8,4 12,3 18,7 15,0 12,4 7 4 22 12 SSE 41 30 0,0
01.06.2020 20:00:00 19,3 7,5 19,3 18,7 14,8 12,4 16 9 29 16 NW 54 60 0,0
01.06.2020 19:00:00 20,9 7,5 21,7 18,5 14,5 12,4 22 12 35 19 NNW 70 60 0,0
01.06.2020 18:00:00 21,7 7,5 23,3 18,1 14,2 12,4 23 13 36 19 NNW 69 60 0,0
01.06.2020 17:00:00 21,9 7,4 24,1 17,5 13,9 12,4 24 13 38 21 NNW 63 60 0,0
01.06.2020 16:00:00 22,3 8,1 25,3 16,8 13,6 12,4 20 11 35 19 N 44 60 0,0
01.06.2020 15:00:00 22,2 8,9 25,3 15,9 13,4 12,4 20 11 31 17 N 59 60 0,0
01.06.2020 14:00:00 21,7 8,6 26,6 14,9 13,2 12,4 18 10 28 15 NNW 40 60 0,0
01.06.2020 13:00:00 20,1 7,5 27,0 13,9 13,2 12,4 9 5 21 12 NW 53 60 0,0
01.06.2020 12:00:00 18,4 8,1 23,8 13,1 13,2 12,4 6 3 17 9 E 75 60 0,0
01.06.2020 11:00:00 16,7 6,7 21,8 12,5 13,3 12,4 5 3 14 7 N 61 60 0,0
01.06.2020 10:00:00 14,6 4,8 18,3 12,2 13,4 12,4 8 4 12 7 N 59 60 0,0
01.06.2020 09:00:00 12,5 4,2 15,4 12,1 13,6 12,4 3 1 6 4 N 75 60 0,0
01.06.2020 08:00:00 8,8 5,0 10,5 12,4 13,7 12,4 4 2 6 4 ESE 75 60 0,0
01.06.2020 07:00:00 3,1 3,0 1,8 12,7 13,9 12,4 6 3 9 5 S 37 0 0,0
01.06.2020 06:00:00 2,0 1,8 0,8 13,1 14,0 12,4 3 1 6 4 SSW 30 0 0,0
01.06.2020 05:00:00 2,5 2,0 0,1 13,5 14,1 12,4 3 1 9 5 S 29 0 0,0
01.06.2020 04:00:00 3,2 2,7 1,5 13,9 14,2 12,4 6 3 8 5 SSE 64 0 0,0
01.06.2020 03:00:00 3,8 2,5 1,8 14,3 14,3 12,4 6 3 9 5 SSE 68 0 0,0
01.06.2020 02:00:00 4,6 3,2 2,4 14,8 14,4 12,4 4 2 8 4 S 64 0 0,0
01.06.2020 01:00:00 6,0 4,4 5,7 15,2 14,4 12,4 5 3 10 5 SSE 75 0 0,0
01.06.2020 00:00:00 6,3 3,8 4,2 15,6 14,3 12,4 6 3 14 8 S 73 0 0,0
31.05.2020 23:00:00 8,4 4,7 5,7 16,0 14,2 12,4 9 5 15 8 S 66 0 0,0
31.05.2020 22:00:00 9,6 5,2 7,7 16,3 14,1 12,4 9 5 12 7 SSE 75 0 0,0
31.05.2020 21:00:00 10,8 4,7 8,8 16,4 13,9 12,4 4 2 20 11 S 75 28 0,0
31.05.2020 20:00:00 15,3 3,9 15,5 16,4 13,7 12,4 15 8 23 12 NNW 55 60 0,0
31.05.2020 19:00:00 17,1 3,9 18,2 16,2 13,5 12,4 13 7 26 14 NNW 75 60 0,0
31.05.2020 18:00:00 16,9 3,7 19,0 16,0 13,3 12,4 17 9 27 15 NNW 75 53 0,0
31.05.2020 17:00:00 16,0 4,1 17,3 15,6 13,1 12,4 22 12 34 19 NNW 33 0 0,0
31.05.2020 16:00:00 17,2 3,4 19,0 15,0 12,9 12,4 19 10 30 16 N 75 40 0,0
31.05.2020 15:00:00 17,4 2,2 21,2 14,2 12,7 12,4 20 11 29 16 NNW 24 59 0,0
31.05.2020 14:00:00 17,0 3,5 21,5 13,5 12,6 12,4 17 9 30 16 N 75 41 0,0
31.05.2020 13:00:00 16,3 3,2 21,9 12,8 12,6 12,4 19 11 32 18 N 75 60 0,0
31.05.2020 12:00:00 15,5 3,5 18,9 12,0 12,6 12,4 14 8 23 13 N 62 60 0,0
31.05.2020 11:00:00 13,2 4,8 18,1 11,5 12,7 12,4 9 5 19 10 N 71 60 0,0
31.05.2020 10:00:00 12,4 4,4 15,6 11,2 12,8 12,4 4 2 8 5 E 65 60 0,0
31.05.2020 09:00:00 10,0 4,3 11,6 11,2 13,0 12,4 3 2 8 4 NNE 70 60 0,0
31.05.2020 08:00:00 7,0 4,2 6,8 11,4 13,1 12,4 2 1 6 3 S 70 59 0,0
31.05.2020 07:00:00 2,0 1,9 0,7 11,7 13,3 12,4 4 2 9 5 S 22 0 0,0
31.05.2020 06:00:00 2,1 2,1 0,0 12,0 13,4 12,4 5 3 8 4 S 35 0 0,0
31.05.2020 05:00:00 2,5 2,5 -0,1 12,4 13,5 12,4 1 0 7 4 SW 25 0 0,0
31.05.2020 04:00:00 2,6 2,4 0,7 12,8 13,6 12,4 4 2 5 3 S 40 0 0,0
31.05.2020 03:00:00 3,6 3,6 0,8 13,1 13,7 12,5 4 2 5 3 SSE 47 0 0,0
31.05.2020 02:00:00 3,2 2,2 1,4 13,5 13,8 12,5 2 1 5 3 S 46 0 0,0
31.05.2020 01:00:00 4,2 3,5 2,6 13,8 13,8 12,5 4 2 8 4 S 50 0 0,0
31.05.2020 00:00:00 5,4 3,7 2,7 14,2 13,9 12,5 4 2 8 5 SSE 61 0 0,0
30.05.2020 23:00:00 6,6 4,1 4,5 14,4 13,9 12,5 6 3 8 4 SSE 56 0 0,0
30.05.2020 22:00:00 10,2 6,0 9,4 14,6 13,8 12,5 6 3 13 7 SSE 66 0 0,0
30.05.2020 21:00:00 11,6 4,7 11,3 14,8 13,8 12,5 7 4 13 7 N 72 0 0,0
30.05.2020 20:00:00 12,2 4,6 12,0 14,9 13,7 12,5 9 5 25 13 NNW 75 0 0,0
30.05.2020 19:00:00 12,8 4,1 12,8 15,0 13,6 12,5 21 11 35 19 NNW 69 0 0,0
30.05.2020 18:00:00 14,2 4,3 14,5 15,1 13,5 12,5 18 10 31 17 NNW 61 1 0,0
30.05.2020 17:00:00 14,3 3,8 14,3 15,1 13,3 12,5 14 8 24 13 NNW 73 0 0,0
30.05.2020 16:00:00 14,5 2,7 14,5 14,9 13,1 12,5 16 9 33 18 NNW 57 0 0,0
30.05.2020 15:00:00 15,3 3,3 16,1 14,5 13,0 12,5 19 10 37 20 NNW 33 4 0,0
30.05.2020 14:00:00 16,4 3,1 19,8 13,8 12,9 12,5 25 13 36 20 NNW 56 53 0,0
30.05.2020 13:00:00 16,8 4,3 20,7 13,0 12,8 12,5 20 11 30 16 N 37 56 0,0
30.05.2020 12:00:00 16,3 5,8 20,9 12,4 12,8 12,5 10 6 25 13 N 75 51 0,0
30.05.2020 11:00:00 14,6 6,2 18,3 11,8 12,9 12,5 4 2 17 9 N 59 60 0,0
30.05.2020 10:00:00 11,4 5,4 14,8 11,5 13,1 12,5 6 3 11 6 E 70 60 0,0
30.05.2020 09:00:00 10,2 4,7 13,2 11,4 13,2 12,5 3 1 9 5 N 40 60 0,0
30.05.2020 08:00:00 7,6 5,3 7,9 11,6 13,4 12,5 3 2 6 3 SE 52 59 0,0
30.05.2020 07:00:00 2,4 2,4 0,9 12,0 13,5 12,5 0 0 9 5 N 22 0 0,0
30.05.2020 06:00:00 1,5 1,1 -0,1 12,3 13,7 12,5 4 2 6 4 S 25 0 0,0
30.05.2020 05:00:00 1,9 1,4 0,2 12,7 13,8 12,5 5 3 8 5 SSE 22 0 0,0
30.05.2020 04:00:00 2,9 2,9 0,4 13,1 13,9 12,5 5 3 6 4 S 42 0 0,0
30.05.2020 03:00:00 2,5 2,1 1,0 13,5 14,0 12,5 4 2 7 4 S 33 0 0,0
30.05.2020 02:00:00 3,3 2,9 1,3 13,9 14,1 12,5 4 2 8 4 S 44 0 0,0
30.05.2020 01:00:00 5,0 3,8 3,0 14,3 14,2 12,5 7 4 11 6 S 43 0 0,0
30.05.2020 00:00:00 6,5 4,3 4,3 14,7 14,2 12,5 9 5 12 6 SSE 75 0 0,0
29.05.2020 23:00:00 8,1 5,0 5,3 15,1 14,1 12,5 8 4 11 6 SSE 72 0 0,0
29.05.2020 22:00:00 8,1 4,7 5,6 15,3 14,0 12,5 4 2 12 6 SSE 62 0 0,0
29.05.2020 21:00:00 12,1 4,7 10,0 15,5 13,9 12,5 10 5 28 15 NW 73 26 0,0
29.05.2020 20:00:00 15,2 4,5 15,3 15,5 13,8 12,5 13 7 31 17 N 73 60 0,0
29.05.2020 19:00:00 15,8 5,0 17,1 15,4 13,7 12,5 21 11 32 17 NNW 44 58 0,0
29.05.2020 18:00:00 15,8 5,3 16,7 15,2 13,6 12,5 22 12 34 18 NNW 75 19 0,0

tt = temperature
td = dewpoint
tt 5cm = temperature 5cm
tt -5cm = temperature -5cm
tt -20cm = temperature -20cm
tt -100cm = temperature -100cm
ff = wind speed
fx = gusts
dd = wind direction
vv = visibility
sd = sunshine duration
rr = precipitation

Next stations